Time;durP1;ratioP1;P1;durP2;ratioP2;P2;SDS_P1;SDS_P2;PMS_P1;PMS_P2;Temp;Humidity;BMP_temperature;BMP_pressure;BME280_temperature;BME280_humidity;BME280_pressure;Samples;Min_cycle;Max_cycle;Signal;HPM_P1;HPM_P2
2022/08/28 00:00:19;;;;;;;;;;;19.10;99.90;;;;;;5042211;28;20163;-65
2022/08/28 00:02:47;;;;;;;;;;;19.10;99.90;;;;;;5047031;28;20226;-65
2022/08/28 00:05:16;;;;;;;;;;;19.10;99.90;;;;;;5044034;28;20248;-64
2022/08/28 00:07:44;;;;;;;;;;;19.10;99.90;;;;;;5048856;28;20644;-64
2022/08/28 00:10:16;;;;;;;;;;;19.10;99.90;;;;;;5046843;28;20209;-64
2022/08/28 00:12:46;;;;;;;;;;;19.10;99.90;;;;;;5041705;28;20276;-63
2022/08/28 00:15:15;;;;;;;;;;;19.10;99.90;;;;;;5041326;28;20291;-64
2022/08/28 00:17:44;;;;;;;;;;;19.10;99.90;;;;;;5039780;28;25071;-64
2022/08/28 00:20:12;;;;;;;;;;;19.20;99.90;;;;;;5042441;28;20420;-65
2022/08/28 00:22:41;;;;;;;;;;;19.20;99.90;;;;;;5045972;28;20308;-65
2022/08/28 00:25:10;;;;;;;;;;;19.20;99.90;;;;;;5048463;28;20092;-65
2022/08/28 00:27:53;;;;;;;;;;;19.20;99.90;;;;;;5044538;28;20236;-65
2022/08/28 00:30:25;;;;;;;;;;;19.10;99.90;;;;;;5048600;28;20191;-65
2022/08/28 00:32:54;;;;;;;;;;;19.20;99.90;;;;;;5045194;28;20220;-65
2022/08/28 00:35:22;;;;;;;;;;;19.10;99.90;;;;;;5040324;28;20700;-65
2022/08/28 00:37:50;;;;;;;;;;;19.20;99.90;;;;;;5048270;28;20129;-65
2022/08/28 00:40:20;;;;;;;;;;;19.10;99.90;;;;;;5047151;28;25093;-64
2022/08/28 00:42:59;;;;;;;;;;;19.10;99.90;;;;;;5034826;28;20666;-62
2022/08/28 00:45:28;;;;;;;;;;;19.10;99.90;;;;;;5044957;28;20705;-64
2022/08/28 00:47:56;;;;;;;;;;;19.10;99.90;;;;;;5043469;28;20741;-64
2022/08/28 00:50:25;;;;;;;;;;;19.20;99.90;;;;;;5039697;28;20696;-63
2022/08/28 00:52:56;;;;;;;;;;;19.20;99.90;;;;;;5043775;28;20348;-65
2022/08/28 00:55:25;;;;;;;;;;;19.10;99.90;;;;;;5045656;28;26128;-64
2022/08/28 00:57:53;;;;;;;;;;;19.10;99.90;;;;;;5039315;28;20126;-65
2022/08/28 01:00:23;;;;;;;;;;;19.10;99.90;;;;;;5041695;28;20778;-65
2022/08/28 01:02:53;;;;;;;;;;;19.20;99.90;;;;;;5045938;28;20777;-65
2022/08/28 01:05:21;;;;;;;;;;;19.20;99.90;;;;;;5048393;28;20999;-65
2022/08/28 01:07:49;;;;;;;;;;;19.40;99.90;;;;;;5043062;28;20206;-65
2022/08/28 01:10:20;;;;;;;;;;;19.50;99.90;;;;;;5038104;28;20305;-66
2022/08/28 01:12:48;;;;;;;;;;;19.50;99.90;;;;;;5045039;28;20484;-65
2022/08/28 01:15:18;;;;;;;;;;;19.60;99.90;;;;;;5041012;28;20606;-65
2022/08/28 01:17:48;;;;;;;;;;;19.60;99.90;;;;;;5049760;28;20210;-65
2022/08/28 01:20:20;;;;;;;;;;;19.60;99.90;;;;;;5047496;28;20224;-65
2022/08/28 01:22:56;;;;;;;;;;;19.60;99.90;;;;;;5048740;28;20183;-64
2022/08/28 01:25:27;;;;;;;;;;;19.60;99.90;;;;;;5051030;28;20704;-65
2022/08/28 01:27:56;;;;;;;;;;;19.70;99.90;;;;;;5045088;28;20149;-64
2022/08/28 01:30:24;;;;;;;;;;;19.70;99.90;;;;;;5046104;28;25094;-65
2022/08/28 01:32:53;;;;;;;;;;;19.70;99.90;;;;;;5046009;28;20868;-65
2022/08/28 01:35:22;;;;;;;;;;;19.80;99.90;;;;;;5047805;28;20080;-65
2022/08/28 01:37:50;;;;;;;;;;;19.70;99.90;;;;;;5045639;28;20937;-65
2022/08/28 01:40:21;;;;;;;;;;;19.70;99.90;;;;;;5048791;28;20220;-64
2022/08/28 01:42:51;;;;;;;;;;;19.70;99.90;;;;;;5043610;28;20236;-66
2022/08/28 01:45:19;;;;;;;;;;;19.70;99.90;;;;;;5041014;28;20162;-65
2022/08/28 01:47:47;;;;;;;;;;;19.80;99.90;;;;;;5047232;28;20243;-65
2022/08/28 01:50:19;;;;;;;;;;;19.80;99.90;;;;;;5050039;28;20126;-65
2022/08/28 01:52:47;;;;;;;;;;;20.00;99.90;;;;;;5044167;28;20189;-65
2022/08/28 01:55:15;;;;;;;;;;;20.10;99.90;;;;;;5051070;28;25306;-64
2022/08/28 01:57:49;;;;;;;;;;;20.10;99.90;;;;;;5045114;28;20574;-65
2022/08/28 02:00:18;;;;;;;;;;;19.90;99.90;;;;;;5049004;28;20160;-65
2022/08/28 02:02:47;;;;;;;;;;;19.90;99.90;;;;;;5044024;28;20323;-64
2022/08/28 02:05:15;;;;;;;;;;;20.00;99.90;;;;;;5045937;28;20128;-64
2022/08/28 02:07:42;;;;;;;;;;;20.00;99.90;;;;;;5050981;28;20229;-66
2022/08/28 02:10:10;;;;;;;;;;;20.00;99.90;;;;;;5047214;28;20118;-65
2022/08/28 02:12:38;;;;;;;;;;;20.10;99.90;;;;;;5050017;28;20248;-65
2022/08/28 02:15:07;;;;;;;;;;;20.10;99.90;;;;;;5048015;28;20083;-64
2022/08/28 02:17:36;;;;;;;;;;;20.20;99.90;;;;;;5051678;28;20578;-64
2022/08/28 02:20:04;;;;;;;;;;;20.10;99.90;;;;;;5051245;28;20083;-64
2022/08/28 02:22:33;;;;;;;;;;;20.20;99.90;;;;;;5043959;28;20365;-64
2022/08/28 02:25:00;;;;;;;;;;;20.50;99.90;;;;;;5037716;28;20169;-62
2022/08/28 02:27:28;;;;;;;;;;;20.50;99.90;;;;;;5046906;28;25149;-62
2022/08/28 02:29:56;;;;;;;;;;;20.60;99.90;;;;;;5043476;28;20155;-63
2022/08/28 02:32:24;;;;;;;;;;;20.80;99.90;;;;;;5042173;28;20732;-66
2022/08/28 02:34:53;;;;;;;;;;;20.80;99.90;;;;;;5040801;28;20786;-65
2022/08/28 02:37:22;;;;;;;;;;;20.90;99.90;;;;;;5038617;28;20127;-65
2022/08/28 02:39:50;;;;;;;;;;;20.90;99.90;;;;;;5049676;28;20988;-65
2022/08/28 02:42:18;;;;;;;;;;;20.80;99.90;;;;;;5042699;28;25091;-65
2022/08/28 02:44:46;;;;;;;;;;;20.90;99.90;;;;;;5049079;28;20087;-64
2022/08/28 02:47:14;;;;;;;;;;;20.80;99.90;;;;;;5043193;28;20799;-64
2022/08/28 02:49:43;;;;;;;;;;;20.60;99.90;;;;;;5042290;28;21019;-64
2022/08/28 02:52:12;;;;;;;;;;;20.50;99.90;;;;;;5047158;28;25069;-63
2022/08/28 02:54:40;;;;;;;;;;;20.30;99.90;;;;;;5046270;28;20092;-64
2022/08/28 02:57:08;;;;;;;;;;;20.40;99.90;;;;;;5051615;28;21665;-64
2022/08/28 02:59:36;;;;;;;;;;;20.20;99.90;;;;;;5044838;28;25058;-63
2022/08/28 03:02:05;;;;;;;;;;;20.10;99.90;;;;;;5041058;28;20078;-64
2022/08/28 03:04:34;;;;;;;;;;;20.00;99.90;;;;;;5044996;28;20657;-65
2022/08/28 03:07:02;;;;;;;;;;;20.00;99.90;;;;;;5045197;28;20272;-65
2022/08/28 03:09:31;;;;;;;;;;;20.10;99.90;;;;;;5034019;28;20107;-64
2022/08/28 03:11:59;;;;;;;;;;;20.10;99.90;;;;;;5044589;28;20118;-62
2022/08/28 03:14:27;;;;;;;;;;;20.00;99.90;;;;;;5045332;28;20211;-64
2022/08/28 03:16:54;;;;;;;;;;;20.10;99.90;;;;;;5043059;28;20197;-65
2022/08/28 03:19:23;;;;;;;;;;;20.10;99.90;;;;;;5050317;28;20281;-65
2022/08/28 03:21:52;;;;;;;;;;;20.30;99.90;;;;;;5043533;28;20206;-64
2022/08/28 03:24:19;;;;;;;;;;;20.10;99.90;;;;;;5045794;28;20247;-64
2022/08/28 03:26:49;;;;;;;;;;;20.10;99.90;;;;;;5042306;28;20255;-65
2022/08/28 03:29:16;;;;;;;;;;;20.20;99.90;;;;;;5044853;28;20141;-65
2022/08/28 03:31:44;;;;;;;;;;;20.40;99.90;;;;;;5043053;28;20458;-65
2022/08/28 03:34:12;;;;;;;;;;;20.40;99.90;;;;;;5039644;28;20659;-64
2022/08/28 03:36:40;;;;;;;;;;;20.40;99.90;;;;;;5046845;28;20823;-64
2022/08/28 03:39:07;;;;;;;;;;;20.50;99.90;;;;;;5037860;28;20129;-65
2022/08/28 03:41:35;;;;;;;;;;;20.70;99.90;;;;;;5040086;28;20650;-65
2022/08/28 03:44:05;;;;;;;;;;;20.70;99.90;;;;;;5045947;28;20215;-64
2022/08/28 03:46:33;;;;;;;;;;;20.60;99.90;;;;;;5044989;28;20839;-65
2022/08/28 03:49:01;;;;;;;;;;;20.50;99.90;;;;;;5043041;28;20214;-65
2022/08/28 03:51:30;;;;;;;;;;;20.50;99.90;;;;;;5045248;28;21500;-64
2022/08/28 03:53:58;;;;;;;;;;;20.40;99.90;;;;;;5044295;28;20500;-64
2022/08/28 03:56:27;;;;;;;;;;;20.20;99.90;;;;;;5045208;28;20595;-65
2022/08/28 03:58:57;;;;;;;;;;;19.90;99.90;;;;;;5040473;28;20279;-64
2022/08/28 04:01:26;;;;;;;;;;;19.80;99.90;;;;;;5043237;28;21354;-65
2022/08/28 04:03:54;;;;;;;;;;;19.60;99.90;;;;;;5039238;28;20369;-64
2022/08/28 04:06:22;;;;;;;;;;;19.40;99.90;;;;;;5033947;28;20136;-64
2022/08/28 04:08:50;;;;;;;;;;;19.40;99.90;;;;;;5049621;28;20978;-64
2022/08/28 04:11:18;;;;;;;;;;;19.50;99.90;;;;;;5043513;28;20295;-64
2022/08/28 04:13:46;;;;;;;;;;;19.50;99.90;;;;;;5047660;28;20170;-64
2022/08/28 04:16:15;;;;;;;;;;;19.40;99.90;;;;;;5047699;28;20250;-64
2022/08/28 04:18:45;;;;;;;;;;;19.40;99.90;;;;;;5047193;28;20203;-64
2022/08/28 04:21:15;;;;;;;;;;;19.30;99.90;;;;;;5044811;28;20212;-64
2022/08/28 04:23:43;;;;;;;;;;;19.30;99.90;;;;;;5048903;28;20114;-64
2022/08/28 04:26:12;;;;;;;;;;;19.20;99.90;;;;;;5040027;28;20227;-64
2022/08/28 04:28:40;;;;;;;;;;;19.20;99.90;;;;;;5042514;28;20238;-64
2022/08/28 04:31:08;;;;;;;;;;;19.10;99.90;;;;;;5046387;28;20217;-67
2022/08/28 04:33:37;;;;;;;;;;;19.00;99.90;;;;;;5042039;28;20265;-67
2022/08/28 04:36:07;;;;;;;;;;;19.00;99.90;;;;;;5036196;28;20277;-66
2022/08/28 04:38:35;;;;;;;;;;;19.00;99.90;;;;;;5040788;28;20243;-66
2022/08/28 04:41:10;;;;;;;;;;;19.00;99.90;;;;;;5043271;28;20979;-66
2022/08/28 04:43:38;;;;;;;;;;;19.00;99.90;;;;;;5043375;28;20286;-69
2022/08/28 04:46:07;;;;;;;;;;;19.00;99.90;;;;;;5046926;28;20230;-67
2022/08/28 04:48:35;;;;;;;;;;;18.90;99.90;;;;;;5036115;28;20687;-66
2022/08/28 04:51:04;;;;;;;;;;;18.90;99.90;;;;;;5042348;28;20083;-67
2022/08/28 04:53:33;;;;;;;;;;;18.80;99.90;;;;;;5043590;28;25069;-65
2022/08/28 04:56:02;;;;;;;;;;;18.90;99.90;;;;;;5046026;28;20625;-66
2022/08/28 04:58:32;;;;;;;;;;;18.80;99.90;;;;;;5042429;28;20513;-66
2022/08/28 05:01:04;;;;;;;;;;;18.80;99.90;;;;;;5041208;28;20834;-65
2022/08/28 05:03:32;;;;;;;;;;;18.80;99.90;;;;;;5041435;28;20254;-67
2022/08/28 05:06:01;;;;;;;;;;;18.80;99.90;;;;;;5038273;28;25077;-66
2022/08/28 05:08:29;;;;;;;;;;;18.80;99.90;;;;;;5033393;28;21257;-67
2022/08/28 05:11:09;;;;;;;;;;;18.70;99.90;;;;;;5034067;28;20086;-68
2022/08/28 05:13:37;;;;;;;;;;;18.70;99.90;;;;;;5034851;28;20718;-67
2022/08/28 05:16:05;;;;;;;;;;;18.70;99.90;;;;;;5036784;28;20719;-68
2022/08/28 05:18:34;;;;;;;;;;;18.60;99.90;;;;;;5037831;28;20207;-69
2022/08/28 05:21:02;;;;;;;;;;;18.60;99.90;;;;;;5038346;28;25067;-67
2022/08/28 05:23:30;;;;;;;;;;;18.70;99.90;;;;;;5036850;28;20414;-66
2022/08/28 05:25:59;;;;;;;;;;;18.60;99.90;;;;;;5037082;28;20272;-68
2022/08/28 05:28:26;;;;;;;;;;;18.50;99.90;;;;;;5032068;28;21377;-66
2022/08/28 05:30:54;;;;;;;;;;;18.50;99.90;;;;;;5037151;28;20721;-64
2022/08/28 05:33:22;;;;;;;;;;;18.50;99.90;;;;;;5033631;28;20139;-68
2022/08/28 05:35:50;;;;;;;;;;;18.50;99.90;;;;;;5037703;28;20255;-66
2022/08/28 05:38:18;;;;;;;;;;;18.60;99.90;;;;;;5035616;28;20203;-63
2022/08/28 05:40:47;;;;;;;;;;;18.60;99.90;;;;;;5032793;28;25073;-65
2022/08/28 05:43:17;;;;;;;;;;;18.60;99.90;;;;;;5035172;28;20253;-64
2022/08/28 05:45:45;;;;;;;;;;;18.60;99.90;;;;;;5031391;28;20364;-69
2022/08/28 05:48:14;;;;;;;;;;;18.60;99.90;;;;;;5033417;28;20128;-66
2022/08/28 05:50:42;;;;;;;;;;;18.70;99.90;;;;;;5034369;28;20856;-68
2022/08/28 05:53:16;;;;;;;;;;;18.70;99.90;;;;;;5034299;28;20160;-68
2022/08/28 05:55:43;;;;;;;;;;;18.70;99.90;;;;;;5039121;28;20805;-64
2022/08/28 05:58:30;;;;;;;;;;;18.80;99.90;;;;;;5033167;28;20152;-68
2022/08/28 06:01:08;;;;;;;;;;;18.80;99.90;;;;;;5038232;28;20543;-70
2022/08/28 06:03:37;;;;;;;;;;;18.80;99.90;;;;;;5036885;28;20420;-68
2022/08/28 06:06:05;;;;;;;;;;;18.80;99.90;;;;;;5041599;28;25068;-65
2022/08/28 06:08:33;;;;;;;;;;;18.80;99.90;;;;;;5036813;28;21184;-66
2022/08/28 06:11:04;;;;;;;;;;;18.80;99.90;;;;;;5040936;28;20140;-73
2022/08/28 06:13:35;;;;;;;;;;;18.80;99.90;;;;;;5039764;28;20276;-67
2022/08/28 06:16:03;;;;;;;;;;;18.80;99.90;;;;;;5039431;28;20433;-69
2022/08/28 06:18:34;;;;;;;;;;;18.80;99.90;;;;;;5038814;28;20459;-68
2022/08/28 06:21:02;;;;;;;;;;;18.80;99.90;;;;;;5036843;28;20719;-70
2022/08/28 06:23:30;;;;;;;;;;;18.80;99.90;;;;;;5038578;28;25142;-65
2022/08/28 06:25:59;;;;;;;;;;;18.80;99.90;;;;;;5041343;28;20256;-65
2022/08/28 06:28:27;;;;;;;;;;;18.90;99.90;;;;;;5036476;28;20714;-64
2022/08/28 06:30:57;;;;;;;;;;;18.80;99.90;;;;;;5036051;28;20770;-65
2022/08/28 06:33:45;;;;;;;;;;;18.90;99.90;;;;;;5041569;28;20817;-64
2022/08/28 06:36:13;;;;;;;;;;;19.00;99.90;;;;;;5041112;28;21122;-65
2022/08/28 06:38:45;;;;;;;;;;;19.00;99.90;;;;;;5036379;28;20072;-65
2022/08/28 06:41:14;;;;;;;;;;;19.00;99.90;;;;;;5033866;28;20346;-65
2022/08/28 06:43:42;;;;;;;;;;;19.10;99.90;;;;;;5038815;28;20364;-65
2022/08/28 06:46:12;;;;;;;;;;;19.00;99.90;;;;;;5036190;28;25158;-65
2022/08/28 06:48:40;;;;;;;;;;;19.10;99.90;;;;;;5036048;28;20237;-68
2022/08/28 06:51:10;;;;;;;;;;;19.00;99.90;;;;;;5038064;28;20563;-65
2022/08/28 06:53:39;;;;;;;;;;;19.10;99.90;;;;;;5035706;28;25065;-66
2022/08/28 06:56:10;;;;;;;;;;;19.10;99.90;;;;;;5038953;28;20319;-66
2022/08/28 06:58:41;;;;;;;;;;;19.10;99.90;;;;;;5041952;28;20981;-66
2022/08/28 07:01:21;;;;;;;;;;;19.00;99.90;;;;;;5038634;28;20496;-65
2022/08/28 07:03:50;;;;;;;;;;;19.10;99.90;;;;;;5036304;28;20563;-65
2022/08/28 07:06:19;;;;;;;;;;;19.20;99.90;;;;;;5040743;28;20384;-65
2022/08/28 07:08:47;;;;;;;;;;;19.20;99.90;;;;;;5036919;28;20776;-65
2022/08/28 07:11:16;;;;;;;;;;;19.20;99.90;;;;;;5036392;28;25163;-65
2022/08/28 07:13:45;;;;;;;;;;;19.40;99.90;;;;;;5038169;28;21486;-66
2022/08/28 07:16:14;;;;;;;;;;;19.70;99.90;;;;;;5037115;28;20129;-65
2022/08/28 07:18:44;;;;;;;;;;;19.90;99.90;;;;;;5031462;28;20093;-65
2022/08/28 07:21:12;;;;;;;;;;;20.10;99.90;;;;;;5038265;28;20822;-65
2022/08/28 07:23:42;;;;;;;;;;;20.40;99.90;;;;;;5036360;28;20178;-65
2022/08/28 07:26:12;;;;;;;;;;;20.40;99.90;;;;;;5036874;28;20948;-66
2022/08/28 07:28:41;;;;;;;;;;;20.50;99.90;;;;;;5034414;28;20195;-67
2022/08/28 07:31:13;;;;;;;;;;;20.70;99.90;;;;;;5038926;28;25071;-66
2022/08/28 07:33:42;;;;;;;;;;;20.80;99.90;;;;;;5036806;28;20201;-64
2022/08/28 07:36:13;;;;;;;;;;;20.90;99.90;;;;;;5039222;28;20892;-64
2022/08/28 07:38:58;;;;;;;;;;;21.00;99.90;;;;;;5038008;28;20251;-65
2022/08/28 07:41:27;;;;;;;;;;;21.10;99.90;;;;;;5034351;28;20161;-65
2022/08/28 07:46:41;;;;;;;;;;;21.10;99.90;;;;;;5039110;28;20765;-66
2022/08/28 07:49:09;;;;;;;;;;;21.10;99.90;;;;;;5036380;28;20171;-65
2022/08/28 07:51:38;;;;;;;;;;;21.20;99.90;;;;;;5036004;28;20187;-66
2022/08/28 07:54:07;;;;;;;;;;;21.30;99.90;;;;;;5036060;28;20770;-66
2022/08/28 07:56:42;;;;;;;;;;;21.30;99.90;;;;;;5033966;28;20226;-66
2022/08/28 07:59:11;;;;;;;;;;;21.40;99.90;;;;;;5034487;28;20262;-66
2022/08/28 08:01:45;;;;;;;;;;;21.50;99.90;;;;;;5033391;28;20200;-66
2022/08/28 08:04:14;;;;;;;;;;;21.50;99.90;;;;;;5036430;28;20214;-66
2022/08/28 08:06:45;;;;;;;;;;;21.60;99.90;;;;;;5035029;28;20194;-65
2022/08/28 08:09:14;;;;;;;;;;;21.70;99.90;;;;;;5034565;28;20188;-66
2022/08/28 08:11:43;;;;;;;;;;;21.70;99.90;;;;;;5035847;28;25075;-65
2022/08/28 08:14:12;;;;;;;;;;;21.70;99.90;;;;;;5032747;28;20321;-66
2022/08/28 08:16:41;;;;;;;;;;;21.70;99.90;;;;;;5036775;28;20137;-66
2022/08/28 08:19:12;;;;;;;;;;;21.70;99.90;;;;;;5036058;28;20235;-65
2022/08/28 08:21:41;;;;;;;;;;;21.90;99.90;;;;;;5033017;28;20199;-65
2022/08/28 08:24:12;;;;;;;;;;;22.00;99.90;;;;;;5035877;28;20243;-65
2022/08/28 08:26:47;;;;;;;;;;;22.00;99.90;;;;;;5038586;28;20089;-66
2022/08/28 08:29:28;;;;;;;;;;;22.00;99.90;;;;;;5038857;28;20223;-65
2022/08/28 08:31:57;;;;;;;;;;;22.30;99.90;;;;;;5028610;28;20693;-65
2022/08/28 08:34:25;;;;;;;;;;;22.50;99.90;;;;;;5033700;28;25069;-64
2022/08/28 08:36:54;;;;;;;;;;;22.90;99.90;;;;;;5033599;28;21312;-65
2022/08/28 08:39:23;;;;;;;;;;;23.10;99.90;;;;;;5037099;28;20323;-65
2022/08/28 08:41:53;;;;;;;;;;;23.20;99.90;;;;;;5035096;28;20209;-63
2022/08/28 08:44:24;;;;;;;;;;;23.30;99.90;;;;;;5036193;28;20148;-63
2022/08/28 08:47:05;;;;;;;;;;;23.50;99.90;;;;;;5034181;28;20231;-63
2022/08/28 08:49:41;;;;;;;;;;;23.60;99.90;;;;;;5035298;28;20335;-63
2022/08/28 08:52:18;;;;;;;;;;;23.80;99.90;;;;;;5033941;28;20578;-63
2022/08/28 08:54:59;;;;;;;;;;;24.00;99.90;;;;;;5034953;28;20241;-63
2022/08/28 08:57:28;;;;;;;;;;;24.10;99.90;;;;;;5034064;28;20106;-64
2022/08/28 08:59:56;;;;;;;;;;;24.30;99.90;;;;;;5035649;28;20177;-64
2022/08/28 09:02:26;;;;;;;;;;;24.20;99.90;;;;;;5029745;28;21160;-64
2022/08/28 09:05:01;;;;;;;;;;;24.30;99.90;;;;;;5032921;28;25103;-64
2022/08/28 09:07:33;;;;;;;;;;;24.40;99.90;;;;;;5034433;28;20099;-64
2022/08/28 09:10:02;;;;;;;;;;;24.30;99.90;;;;;;5034547;28;20234;-64
2022/08/28 09:12:34;;;;;;;;;;;24.40;99.90;;;;;;5036819;28;20241;-64
2022/08/28 09:15:08;;;;;;;;;;;24.50;99.90;;;;;;5035866;28;20416;-64
2022/08/28 09:17:38;;;;;;;;;;;24.90;99.90;;;;;;5036160;28;20101;-64
2022/08/28 09:20:08;;;;;;;;;;;25.00;99.90;;;;;;5038132;28;20298;-64
2022/08/28 09:22:36;;;;;;;;;;;25.30;99.90;;;;;;5037116;28;20093;-64
2022/08/28 09:25:05;;;;;;;;;;;25.50;99.90;;;;;;5039578;28;20077;-64
2022/08/28 09:27:34;;;;;;;;;;;25.50;99.90;;;;;;5036112;28;20325;-64
2022/08/28 09:30:07;;;;;;;;;;;25.40;99.90;;;;;;5034228;28;20378;-64
2022/08/28 09:32:37;;;;;;;;;;;25.60;99.90;;;;;;5035006;28;20246;-64
2022/08/28 09:35:07;;;;;;;;;;;25.50;99.90;;;;;;5032959;28;20218;-64
2022/08/28 09:37:35;;;;;;;;;;;25.40;99.90;;;;;;5040266;28;21672;-67
2022/08/28 09:40:15;;;;;;;;;;;25.30;99.90;;;;;;5041698;28;20210;-68
2022/08/28 09:45:42;;;;;;;;;;;25.60;99.90;;;;;;5037852;28;20721;-66
2022/08/28 09:48:18;;;;;;;;;;;25.50;99.90;;;;;;5040803;28;20210;-67
2022/08/28 09:50:56;;;;;;;;;;;25.40;99.90;;;;;;5041421;28;20208;-65
2022/08/28 09:53:24;;;;;;;;;;;25.60;99.90;;;;;;5039703;28;20759;-66
2022/08/28 09:55:56;;;;;;;;;;;25.90;99.90;;;;;;5041207;28;20216;-68
2022/08/28 09:58:28;;;;;;;;;;;26.00;99.30;;;;;;5036469;28;20209;-65
2022/08/28 10:00:57;;;;;;;;;;;26.20;99.70;;;;;;5040761;28;20222;-70
2022/08/28 10:03:28;;;;;;;;;;;26.30;99.50;;;;;;5041150;28;20210;-65
2022/08/28 10:06:00;;;;;;;;;;;26.20;99.30;;;;;;5040408;28;20218;-65
2022/08/28 10:08:32;;;;;;;;;;;26.10;99.10;;;;;;5033391;28;20219;-65
2022/08/28 10:11:06;;;;;;;;;;;26.00;99.40;;;;;;5037094;28;20278;-65
2022/08/28 10:13:35;;;;;;;;;;;25.90;99.60;;;;;;5038235;28;21070;-65
2022/08/28 10:16:12;;;;;;;;;;;26.20;98.90;;;;;;5037603;28;20256;-65
2022/08/28 10:18:44;;;;;;;;;;;25.90;99.50;;;;;;5041222;28;20215;-64
2022/08/28 10:21:15;;;;;;;;;;;26.10;99.00;;;;;;5034076;28;20253;-64
2022/08/28 10:23:49;;;;;;;;;;;26.50;98.50;;;;;;5035756;28;20089;-64
2022/08/28 10:26:23;;;;;;;;;;;26.70;98.30;;;;;;5039797;28;20848;-65
2022/08/28 10:29:01;;;;;;;;;;;26.70;98.40;;;;;;5040491;28;20220;-65
2022/08/28 10:31:32;;;;;;;;;;;26.70;97.80;;;;;;5036676;28;20210;-65
2022/08/28 10:34:06;;;;;;;;;;;26.80;97.80;;;;;;5040852;28;20198;-65
2022/08/28 10:36:35;;;;;;;;;;;26.90;97.70;;;;;;5042544;28;20334;-71
2022/08/28 10:39:07;;;;;;;;;;;27.00;97.40;;;;;;5039833;28;20201;-64
2022/08/28 10:41:40;;;;;;;;;;;27.00;97.10;;;;;;5038933;28;20214;-71
2022/08/28 10:44:08;;;;;;;;;;;26.90;97.40;;;;;;5039060;28;20219;-71
2022/08/28 10:46:40;;;;;;;;;;;27.30;97.10;;;;;;5041233;28;20624;-68
2022/08/28 10:49:11;;;;;;;;;;;27.50;97.00;;;;;;5041100;28;20282;-67
2022/08/28 10:51:40;;;;;;;;;;;27.40;96.90;;;;;;5037445;28;20746;-70
2022/08/28 10:54:18;;;;;;;;;;;27.60;96.40;;;;;;5038131;28;20221;-72
2022/08/28 10:56:51;;;;;;;;;;;27.70;96.10;;;;;;5039689;28;20263;-71
2022/08/28 10:59:23;;;;;;;;;;;27.80;96.20;;;;;;5039437;28;20217;-68
2022/08/28 11:01:51;;;;;;;;;;;27.70;96.00;;;;;;5034074;28;20087;-70
2022/08/28 11:04:21;;;;;;;;;;;27.80;95.80;;;;;;5035998;28;20227;-72
2022/08/28 11:06:54;;;;;;;;;;;27.90;96.00;;;;;;5039446;28;20217;-71
2022/08/28 11:09:29;;;;;;;;;;;28.30;95.40;;;;;;5034281;28;20196;-71
2022/08/28 11:11:58;;;;;;;;;;;28.60;95.30;;;;;;5036834;28;20218;-65
2022/08/28 11:14:30;;;;;;;;;;;28.70;95.00;;;;;;5038244;28;20588;-69
2022/08/28 11:17:00;;;;;;;;;;;28.90;94.80;;;;;;5038926;28;20773;-65
2022/08/28 11:19:42;;;;;;;;;;;29.00;94.20;;;;;;5036891;28;20097;-66
2022/08/28 11:22:15;;;;;;;;;;;28.50;94.20;;;;;;5035013;28;20231;-69
2022/08/28 11:24:46;;;;;;;;;;;28.40;94.60;;;;;;5034658;28;20203;-71
2022/08/28 11:27:21;;;;;;;;;;;28.60;94.40;;;;;;5034578;28;20611;-67
2022/08/28 11:30:00;;;;;;;;;;;28.50;94.60;;;;;;5036959;28;20195;-64
2022/08/28 11:32:39;;;;;;;;;;;28.50;93.90;;;;;;5034007;28;20203;-65
2022/08/28 11:35:28;;;;;;;;;;;28.90;93.80;;;;;;5034885;28;20221;-70
2022/08/28 11:37:56;;;;;;;;;;;29.00;93.70;;;;;;5037042;28;21184;-65
2022/08/28 11:40:39;;;;;;;;;;;28.60;93.70;;;;;;5039541;28;20266;-63
2022/08/28 11:43:22;;;;;;;;;;;28.80;93.90;;;;;;5038288;28;20202;-63
2022/08/28 11:46:20;;;;;;;;;;;29.10;93.80;;;;;;5036657;28;20561;-63
2022/08/28 11:48:53;;;;;;;;;;;29.80;93.20;;;;;;4981068;28;20331;-63
2022/08/28 11:51:29;;;;;;;;;;;29.90;92.60;;;;;;5021708;28;20892;-63
2022/08/28 11:54:02;;;;;;;;;;;30.00;92.40;;;;;;5037420;28;20844;-63
2022/08/28 11:56:35;;;;;;;;;;;30.00;92.60;;;;;;5037704;28;20264;-63
2022/08/28 11:59:09;;;;;;;;;;;30.40;91.70;;;;;;5035483;28;20231;-64
2022/08/28 12:01:38;;;;;;;;;;;30.30;91.80;;;;;;5034434;28;20690;-63
2022/08/28 12:04:08;;;;;;;;;;;30.60;91.70;;;;;;5034004;28;20292;-64
2022/08/28 12:06:46;;;;;;;;;;;30.80;91.40;;;;;;5036246;28;20206;-63
2022/08/28 12:09:34;;;;;;;;;;;31.10;90.60;;;;;;5031087;28;20637;-63
2022/08/28 12:12:03;;;;;;;;;;;31.30;90.20;;;;;;5032560;28;20211;-64
2022/08/28 12:15:06;;;;;;;;;;;31.60;90.10;;;;;;5035664;28;20285;-63
2022/08/28 12:17:48;;;;;;;;;;;31.70;89.50;;;;;;5035044;28;20256;-64
2022/08/28 12:20:19;;;;;;;;;;;31.50;89.30;;;;;;5037959;28;20205;-64
2022/08/28 12:22:51;;;;;;;;;;;31.00;88.80;;;;;;5032437;28;22263;-63
2022/08/28 12:25:25;;;;;;;;;;;30.50;89.40;;;;;;5036065;28;20225;-63
2022/08/28 12:27:53;;;;;;;;;;;30.00;89.50;;;;;;5038685;28;20205;-63
2022/08/28 12:30:28;;;;;;;;;;;29.80;90.50;;;;;;5033066;28;20209;-63
2022/08/28 12:32:58;;;;;;;;;;;29.70;90.30;;;;;;5032661;28;20202;-62
2022/08/28 12:35:29;;;;;;;;;;;29.70;90.00;;;;;;5036435;28;20206;-63
2022/08/28 12:38:01;;;;;;;;;;;29.60;90.30;;;;;;5039754;28;20210;-62
2022/08/28 12:40:34;;;;;;;;;;;29.60;90.00;;;;;;5035315;28;20256;-62
2022/08/28 12:43:04;;;;;;;;;;;28.80;90.50;;;;;;5034423;28;20206;-62
2022/08/28 12:45:35;;;;;;;;;;;28.30;90.80;;;;;;5033813;28;20206;-63
2022/08/28 12:48:05;;;;;;;;;;;28.20;91.10;;;;;;5033148;28;20210;-63
2022/08/28 12:50:37;;;;;;;;;;;28.20;91.10;;;;;;5035107;28;20233;-62
2022/08/28 12:53:05;;;;;;;;;;;27.70;91.50;;;;;;5031775;28;20863;-64
2022/08/28 12:55:34;;;;;;;;;;;27.40;92.10;;;;;;5033474;28;20706;-63
2022/08/28 12:58:02;;;;;;;;;;;27.40;91.70;;;;;;5033479;28;20265;-62
2022/08/28 13:00:32;;;;;;;;;;;27.70;91.60;;;;;;5035292;28;20393;-62
2022/08/28 13:03:00;;;;;;;;;;;27.80;91.30;;;;;;5030239;28;20211;-62
2022/08/28 13:05:30;;;;;;;;;;;27.70;91.40;;;;;;5030276;28;20216;-62
2022/08/28 13:08:00;;;;;;;;;;;27.70;91.70;;;;;;5032294;28;20206;-62
2022/08/28 13:10:29;;;;;;;;;;;27.70;91.40;;;;;;5030101;28;20255;-62
2022/08/28 13:12:59;;;;;;;;;;;27.70;91.30;;;;;;5027769;28;20210;-62
2022/08/28 13:15:53;;;;;;;;;;;27.60;91.00;;;;;;5036114;28;20201;-62
2022/08/28 13:18:34;;;;;;;;;;;27.60;91.50;;;;;;5031555;28;20802;-63
2022/08/28 13:21:11;;;;;;;;;;;27.80;91.70;;;;;;5032347;28;20198;-62
2022/08/28 13:23:41;;;;;;;;;;;28.00;91.20;;;;;;5031522;28;20785;-62
2022/08/28 13:26:09;;;;;;;;;;;28.10;91.10;;;;;;5036769;28;20675;-62
2022/08/28 13:28:37;;;;;;;;;;;28.10;91.10;;;;;;5031100;28;20198;-62
2022/08/28 13:31:06;;;;;;;;;;;28.20;90.90;;;;;;5036875;28;20206;-63
2022/08/28 13:33:34;;;;;;;;;;;28.40;91.10;;;;;;5038256;28;20865;-63
2022/08/28 13:36:19;;;;;;;;;;;28.40;90.30;;;;;;5038880;28;20202;-62
2022/08/28 13:38:48;;;;;;;;;;;28.10;90.60;;;;;;5032641;28;20193;-62
2022/08/28 13:41:16;;;;;;;;;;;27.90;90.70;;;;;;5035800;28;21067;-64
2022/08/28 13:43:45;;;;;;;;;;;27.80;90.90;;;;;;5034635;28;20241;-63
2022/08/28 13:46:13;;;;;;;;;;;27.70;91.20;;;;;;5035589;28;20267;-63
2022/08/28 13:48:41;;;;;;;;;;;27.70;90.90;;;;;;5038260;28;20210;-62
2022/08/28 13:51:10;;;;;;;;;;;27.70;90.80;;;;;;5032054;28;20685;-62
2022/08/28 13:53:48;;;;;;;;;;;27.70;91.40;;;;;;5037229;28;20196;-62
2022/08/28 13:56:16;;;;;;;;;;;27.60;91.00;;;;;;5035525;28;20443;-63
2022/08/28 13:58:44;;;;;;;;;;;27.30;91.10;;;;;;5037160;28;20763;-63
2022/08/28 14:03:34;;;;;;;;;;;26.80;91.30;;;;;;5030780;28;20199;-63
2022/08/28 14:04:12;;;;;;;;;;;26.70;91.60;;;;;;5034221;28;20234;-63
2022/08/28 14:06:42;;;;;;;;;;;26.60;91.90;;;;;;5035944;28;20866;-63
2022/08/28 14:09:14;;;;;;;;;;;26.60;91.90;;;;;;5035898;28;20160;-63
2022/08/28 14:11:44;;;;;;;;;;;26.60;91.50;;;;;;5031370;28;20735;-62
2022/08/28 14:14:11;;;;;;;;;;;26.80;91.90;;;;;;5030202;28;20213;-63
2022/08/28 14:16:39;;;;;;;;;;;26.80;92.10;;;;;;5032382;28;20202;-63
2022/08/28 14:19:08;;;;;;;;;;;26.90;91.20;;;;;;5033842;28;20203;-63
2022/08/28 14:21:36;;;;;;;;;;;27.00;91.70;;;;;;5036654;28;20201;-63
2022/08/28 14:24:05;;;;;;;;;;;27.00;90.70;;;;;;5035083;28;20203;-63
2022/08/28 14:26:34;;;;;;;;;;;26.80;90.30;;;;;;5037495;28;20203;-63
2022/08/28 14:29:03;;;;;;;;;;;26.70;90.20;;;;;;5037973;28;20850;-62
2022/08/28 14:31:34;;;;;;;;;;;26.70;90.70;;;;;;5035623;28;20215;-62
2022/08/28 14:34:03;;;;;;;;;;;26.80;90.40;;;;;;5038037;28;20674;-63
2022/08/28 14:36:31;;;;;;;;;;;26.90;90.60;;;;;;5042424;28;20215;-63
2022/08/28 14:39:00;;;;;;;;;;;26.90;90.40;;;;;;5040991;28;20890;-62
2022/08/28 14:41:34;;;;;;;;;;;26.70;89.00;;;;;;5033227;28;20244;-63